sensor_id;sensor_type;location;lat;lon;timestamp;pressure;altitude;pressure_sealevel;temperature;humidity
74230;BME280;62589;12.568;99.958;2023-03-05T00:01:54;101436.66;;;31.67;42.61
74230;BME280;62589;12.568;99.958;2023-03-05T00:04:20;101440.22;;;31.67;42.86
74230;BME280;62589;12.568;99.958;2023-03-05T00:06:48;101444.50;;;31.65;42.79
74230;BME280;62589;12.568;99.958;2023-03-05T00:09:15;101449.38;;;31.68;42.44
74230;BME280;62589;12.568;99.958;2023-03-05T00:11:42;101449.38;;;31.68;42.42
74230;BME280;62589;12.568;99.958;2023-03-05T00:14:09;101452.94;;;31.68;42.82
74230;BME280;62589;12.568;99.958;2023-03-05T00:16:36;101461.72;;;31.70;42.53
74230;BME280;62589;12.568;99.958;2023-03-05T00:19:02;101465.66;;;31.69;42.53
74230;BME280;62589;12.568;99.958;2023-03-05T00:21:34;101468.06;;;31.71;43.21
74230;BME280;62589;12.568;99.958;2023-03-05T00:24:05;101484.44;;;31.76;43.22
74230;BME280;62589;12.568;99.958;2023-03-05T00:26:34;101483.66;;;31.75;43.54
74230;BME280;62589;12.568;99.958;2023-03-05T00:29:01;101489.66;;;31.77;43.38
74230;BME280;62589;12.568;99.958;2023-03-05T00:31:30;101486.91;;;31.81;43.53
74230;BME280;62589;12.568;99.958;2023-03-05T00:34:10;101492.56;;;31.85;43.71
74230;BME280;62589;12.568;99.958;2023-03-05T00:36:47;101496.56;;;31.87;43.33
74230;BME280;62589;12.568;99.958;2023-03-05T00:39:14;101503.03;;;31.91;42.95
74230;BME280;62589;12.568;99.958;2023-03-05T00:41:42;101510.25;;;31.96;43.27
74230;BME280;62589;12.568;99.958;2023-03-05T00:44:09;101516.69;;;32.00;42.78
74230;BME280;62589;12.568;99.958;2023-03-05T00:46:35;101516.84;;;32.07;42.98
74230;BME280;62589;12.568;99.958;2023-03-05T00:49:02;101520.94;;;32.13;42.81
74230;BME280;62589;12.568;99.958;2023-03-05T00:51:29;101523.44;;;32.18;42.95
74230;BME280;62589;12.568;99.958;2023-03-05T00:53:55;101523.16;;;32.23;42.98
74230;BME280;62589;12.568;99.958;2023-03-05T00:56:22;101519.28;;;32.28;42.50
74230;BME280;62589;12.568;99.958;2023-03-05T00:58:49;101530.09;;;32.33;42.60
74230;BME280;62589;12.568;99.958;2023-03-05T01:01:16;101527.84;;;32.38;42.92
74230;BME280;62589;12.568;99.958;2023-03-05T01:03:42;101536.28;;;32.45;42.86
74230;BME280;62589;12.568;99.958;2023-03-05T01:06:11;101534.41;;;32.50;42.63
74230;BME280;62589;12.568;99.958;2023-03-05T01:08:38;101545.59;;;32.53;42.85
74230;BME280;62589;12.568;99.958;2023-03-05T01:11:06;101547.75;;;32.63;42.91
74230;BME280;62589;12.568;99.958;2023-03-05T01:13:32;101545.47;;;32.69;42.96
74230;BME280;62589;12.568;99.958;2023-03-05T01:15:59;101559.47;;;32.72;42.93
74230;BME280;62589;12.568;99.958;2023-03-05T01:18:26;101554.88;;;32.80;42.86
74230;BME280;62589;12.568;99.958;2023-03-05T01:20:52;101560.91;;;32.86;43.10
74230;BME280;62589;12.568;99.958;2023-03-05T01:23:19;101568.66;;;32.96;42.79
74230;BME280;62589;12.568;99.958;2023-03-05T01:25:51;101566.75;;;33.00;42.91
74230;BME280;62589;12.568;99.958;2023-03-05T01:28:24;101576.38;;;33.06;42.89
74230;BME280;62589;12.568;99.958;2023-03-05T01:30:51;101584.06;;;33.12;42.60
74230;BME280;62589;12.568;99.958;2023-03-05T01:33:20;101570.28;;;33.20;42.53
74230;BME280;62589;12.568;99.958;2023-03-05T01:35:50;101580.34;;;33.28;42.19
74230;BME280;62589;12.568;99.958;2023-03-05T01:38:20;101583.28;;;33.35;42.46
74230;BME280;62589;12.568;99.958;2023-03-05T01:40:47;101590.56;;;33.43;42.35
74230;BME280;62589;12.568;99.958;2023-03-05T01:43:24;101592.28;;;33.51;42.00
74230;BME280;62589;12.568;99.958;2023-03-05T01:51:34;101600.16;;;33.72;41.50
74230;BME280;62589;12.568;99.958;2023-03-05T01:54:03;101599.50;;;33.78;41.07
74230;BME280;62589;12.568;99.958;2023-03-05T01:56:32;101609.16;;;33.85;41.22
74230;BME280;62589;12.568;99.958;2023-03-05T01:58:59;101610.03;;;33.92;41.06
74230;BME280;62589;12.568;99.958;2023-03-05T02:01:36;101614.09;;;33.98;41.45
74230;BME280;62589;12.568;99.958;2023-03-05T02:04:04;101603.88;;;34.06;41.45
74230;BME280;62589;12.568;99.958;2023-03-05T02:06:30;101621.09;;;34.15;40.85
74230;BME280;62589;12.568;99.958;2023-03-05T02:08:58;101621.59;;;34.21;41.08
74230;BME280;62589;12.568;99.958;2023-03-05T02:11:25;101618.09;;;34.27;40.59
74230;BME280;62589;12.568;99.958;2023-03-05T02:13:51;101628.97;;;34.36;40.74
74230;BME280;62589;12.568;99.958;2023-03-05T02:16:18;101621.50;;;34.43;40.76
74230;BME280;62589;12.568;99.958;2023-03-05T02:18:44;101623.56;;;34.46;40.54
74230;BME280;62589;12.568;99.958;2023-03-05T02:21:11;101621.25;;;34.56;40.29
74230;BME280;62589;12.568;99.958;2023-03-05T02:23:38;101634.09;;;34.64;40.68
74230;BME280;62589;12.568;99.958;2023-03-05T02:26:07;101628.63;;;34.71;40.41
74230;BME280;62589;12.568;99.958;2023-03-05T02:28:48;101636.72;;;34.79;39.94
74230;BME280;62589;12.568;99.958;2023-03-05T02:31:19;101637.59;;;34.87;39.85
74230;BME280;62589;12.568;99.958;2023-03-05T02:33:47;101638.50;;;34.98;39.92
74230;BME280;62589;12.568;99.958;2023-03-05T02:36:14;101631.72;;;34.99;39.60
74230;BME280;62589;12.568;99.958;2023-03-05T02:38:41;101639.75;;;35.04;39.78
74230;BME280;62589;12.568;99.958;2023-03-05T02:41:09;101641.84;;;35.11;39.57
74230;BME280;62589;12.568;99.958;2023-03-05T02:43:36;101640.66;;;35.15;39.44
74230;BME280;62589;12.568;99.958;2023-03-05T02:46:02;101641.16;;;35.25;39.41
74230;BME280;62589;12.568;99.958;2023-03-05T02:48:29;101634.84;;;35.28;39.07
74230;BME280;62589;12.568;99.958;2023-03-05T02:50:56;101643.28;;;35.38;38.87
74230;BME280;62589;12.568;99.958;2023-03-05T02:53:23;101636.56;;;35.43;39.08
74230;BME280;62589;12.568;99.958;2023-03-05T02:55:51;101646.19;;;35.49;38.87
74230;BME280;62589;12.568;99.958;2023-03-05T02:58:17;101641.03;;;35.51;37.96
74230;BME280;62589;12.568;99.958;2023-03-05T03:00:44;101647.47;;;35.62;37.71
74230;BME280;62589;12.568;99.958;2023-03-05T03:03:12;101642.72;;;35.66;36.95
74230;BME280;62589;12.568;99.958;2023-03-05T03:05:39;101643.19;;;35.75;36.41
74230;BME280;62589;12.568;99.958;2023-03-05T03:08:05;101644.81;;;35.76;36.60
74230;BME280;62589;12.568;99.958;2023-03-05T03:10:32;101647.28;;;35.85;36.37
74230;BME280;62589;12.568;99.958;2023-03-05T03:12:59;101646.47;;;35.85;36.25
74230;BME280;62589;12.568;99.958;2023-03-05T03:15:25;101647.31;;;35.89;36.62
74230;BME280;62589;12.568;99.958;2023-03-05T03:17:52;101644.53;;;35.92;35.61
74230;BME280;62589;12.568;99.958;2023-03-05T03:20:21;101652.97;;;35.99;35.90
74230;BME280;62589;12.568;99.958;2023-03-05T03:22:47;101646.63;;;36.06;36.13
74230;BME280;62589;12.568;99.958;2023-03-05T03:25:15;101651.44;;;36.09;35.51
74230;BME280;62589;12.568;99.958;2023-03-05T03:27:42;101641.88;;;36.17;34.83
74230;BME280;62589;12.568;99.958;2023-03-05T03:30:09;101637.91;;;36.22;34.87
74230;BME280;62589;12.568;99.958;2023-03-05T03:32:37;101642.78;;;36.28;34.38
74230;BME280;62589;12.568;99.958;2023-03-05T03:35:03;101637.63;;;36.34;34.84
74230;BME280;62589;12.568;99.958;2023-03-05T03:37:31;101630.81;;;36.38;34.26
74230;BME280;62589;12.568;99.958;2023-03-05T03:39:57;101626.84;;;36.43;34.46
74230;BME280;62589;12.568;99.958;2023-03-05T03:42:24;101626.88;;;36.50;34.26
74230;BME280;62589;12.568;99.958;2023-03-05T03:44:51;101625.31;;;36.53;33.46
74230;BME280;62589;12.568;99.958;2023-03-05T03:47:18;101620.53;;;36.57;33.85
74230;BME280;62589;12.568;99.958;2023-03-05T03:49:48;101623.31;;;36.60;34.02
74230;BME280;62589;12.568;99.958;2023-03-05T03:52:14;101621.34;;;36.68;33.57
74230;BME280;62589;12.568;99.958;2023-03-05T03:54:44;101616.16;;;36.70;33.70
74230;BME280;62589;12.568;99.958;2023-03-05T03:57:11;101610.22;;;36.75;33.60
74230;BME280;62589;12.568;99.958;2023-03-05T03:59:37;101603.00;;;36.81;32.91
74230;BME280;62589;12.568;99.958;2023-03-05T04:02:04;101600.63;;;36.83;32.60
74230;BME280;62589;12.568;99.958;2023-03-05T04:04:32;101595.44;;;36.89;33.01
74230;BME280;62589;12.568;99.958;2023-03-05T04:06:58;101586.66;;;36.90;32.57
74230;BME280;62589;12.568;99.958;2023-03-05T04:09:28;101590.25;;;36.94;33.33
74230;BME280;62589;12.568;99.958;2023-03-05T04:11:55;101586.28;;;36.99;32.98
74230;BME280;62589;12.568;99.958;2023-03-05T04:14:22;101586.66;;;37.04;32.95
74230;BME280;62589;12.568;99.958;2023-03-05T04:16:51;101576.25;;;37.08;33.04
74230;BME280;62589;12.568;99.958;2023-03-05T04:19:18;101571.88;;;37.11;33.33
74230;BME280;62589;12.568;99.958;2023-03-05T04:21:51;101570.28;;;37.13;33.35
74230;BME280;62589;12.568;99.958;2023-03-05T04:24:19;101571.47;;;37.16;33.32
74230;BME280;62589;12.568;99.958;2023-03-05T04:26:45;101573.88;;;37.21;33.26
74230;BME280;62589;12.568;99.958;2023-03-05T04:29:12;101571.09;;;37.25;33.00
74230;BME280;62589;12.568;99.958;2023-03-05T04:31:39;101568.69;;;37.30;34.14
74230;BME280;62589;12.568;99.958;2023-03-05T04:34:06;101559.50;;;37.30;34.97
74230;BME280;62589;12.568;99.958;2023-03-05T04:36:33;101554.28;;;37.32;35.25
74230;BME280;62589;12.568;99.958;2023-03-05T04:38:59;101553.88;;;37.33;35.35
74230;BME280;62589;12.568;99.958;2023-03-05T04:41:26;101551.09;;;37.33;35.56
74230;BME280;62589;12.568;99.958;2023-03-05T04:43:52;101550.28;;;37.36;35.77
74230;BME280;62589;12.568;99.958;2023-03-05T04:46:19;101541.09;;;37.36;35.54
74230;BME280;62589;12.568;99.958;2023-03-05T04:48:46;101535.88;;;37.38;35.51
74230;BME280;62589;12.568;99.958;2023-03-05T04:51:13;101534.28;;;37.37;35.59
74230;BME280;62589;12.568;99.958;2023-03-05T04:53:39;101522.28;;;37.40;35.27
74230;BME280;62589;12.568;99.958;2023-03-05T04:56:07;101531.88;;;37.39;35.36
74230;BME280;62589;12.568;99.958;2023-03-05T04:58:33;101514.25;;;37.42;35.50
74230;BME280;62589;12.568;99.958;2023-03-05T05:01:01;101508.66;;;37.42;35.29
74230;BME280;62589;12.568;99.958;2023-03-05T05:03:29;101510.25;;;37.43;35.27
74230;BME280;62589;12.568;99.958;2023-03-05T05:06:15;101513.03;;;37.50;35.10
74230;BME280;62589;12.568;99.958;2023-03-05T05:08:42;101501.84;;;37.43;35.02
74230;BME280;62589;12.568;99.958;2023-03-05T05:11:12;101501.03;;;37.46;34.79
74230;BME280;62589;12.568;99.958;2023-03-05T05:13:43;101495.03;;;37.44;34.76
74230;BME280;62589;12.568;99.958;2023-03-05T05:16:12;101483.03;;;37.43;34.55
74230;BME280;62589;12.568;99.958;2023-03-05T05:18:38;101474.63;;;37.43;35.08
74230;BME280;62589;12.568;99.958;2023-03-05T05:21:13;101473.03;;;37.46;34.95
74230;BME280;62589;12.568;99.958;2023-03-05T05:23:40;101462.63;;;37.46;34.53
74230;BME280;62589;12.568;99.958;2023-03-05T05:26:07;101460.63;;;37.43;34.63
74230;BME280;62589;12.568;99.958;2023-03-05T05:28:35;101461.81;;;37.46;34.79
74230;BME280;62589;12.568;99.958;2023-03-05T05:31:06;101455.03;;;37.47;34.65
74230;BME280;62589;12.568;99.958;2023-03-05T05:33:34;101455.03;;;37.47;34.35
74230;BME280;62589;12.568;99.958;2023-03-05T05:36:06;101447.03;;;37.45;34.70
74230;BME280;62589;12.568;99.958;2023-03-05T05:38:34;101438.22;;;37.50;34.46
74230;BME280;62589;12.568;99.958;2023-03-05T05:41:20;101437.00;;;37.52;34.64
74230;BME280;62589;12.568;99.958;2023-03-05T05:43:50;101436.63;;;37.46;34.58
74230;BME280;62589;12.568;99.958;2023-03-05T05:46:19;101433.00;;;37.49;34.15
74230;BME280;62589;12.568;99.958;2023-03-05T05:48:46;101428.59;;;37.48;34.48
74230;BME280;62589;12.568;99.958;2023-03-05T05:51:16;101411.41;;;37.46;34.19
74230;BME280;62589;12.568;99.958;2023-03-05T05:53:44;101411.81;;;37.44;34.06
74230;BME280;62589;12.568;99.958;2023-03-05T05:56:13;101410.59;;;37.45;34.43
74230;BME280;62589;12.568;99.958;2023-03-05T05:58:43;101411.41;;;37.46;34.33
74230;BME280;62589;12.568;99.958;2023-03-05T06:01:16;101393.41;;;37.47;34.22
74230;BME280;62589;12.568;99.958;2023-03-05T06:03:43;101398.22;;;37.43;34.15
74230;BME280;62589;12.568;99.958;2023-03-05T06:06:12;101390.59;;;37.43;34.22
74230;BME280;62589;12.568;99.958;2023-03-05T06:08:40;101386.19;;;37.46;33.97
74230;BME280;62589;12.568;99.958;2023-03-05T06:11:10;101388.59;;;37.47;34.29
74230;BME280;62589;12.568;99.958;2023-03-05T06:13:38;101380.19;;;37.44;34.12
74230;BME280;62589;12.568;99.958;2023-03-05T06:16:09;101360.59;;;37.44;34.09
74230;BME280;62589;12.568;99.958;2023-03-05T06:18:37;101355.78;;;37.44;34.27
74230;BME280;62589;12.568;99.958;2023-03-05T06:21:07;101356.97;;;37.47;33.90
74230;BME280;62589;12.568;99.958;2023-03-05T06:23:34;101352.19;;;37.47;34.38
74230;BME280;62589;12.568;99.958;2023-03-05T06:26:06;101349.78;;;37.46;34.49
74230;BME280;62589;12.568;99.958;2023-03-05T06:28:34;101340.19;;;37.43;34.54
74230;BME280;62589;12.568;99.958;2023-03-05T06:31:22;101339.38;;;37.50;34.69
74230;BME280;62589;12.568;99.958;2023-03-05T06:33:51;101330.97;;;37.43;34.88
74230;BME280;62589;12.568;99.958;2023-03-05T06:36:19;101330.97;;;37.43;34.50
74230;BME280;62589;12.568;99.958;2023-03-05T06:38:46;101330.19;;;37.42;34.41
74230;BME280;62589;12.568;99.958;2023-03-05T06:41:16;101319.81;;;37.39;34.37
74230;BME280;62589;12.568;99.958;2023-03-05T06:43:44;101313.44;;;37.39;34.45
74230;BME280;62589;12.568;99.958;2023-03-05T06:46:19;101311.84;;;37.38;34.47
74230;BME280;62589;12.568;99.958;2023-03-05T06:48:47;101310.22;;;37.37;34.42
74230;BME280;62589;12.568;99.958;2023-03-05T06:51:26;101308.25;;;37.34;34.51
74230;BME280;62589;12.568;99.958;2023-03-05T06:53:54;101303.03;;;37.36;34.43
74230;BME280;62589;12.568;99.958;2023-03-05T06:56:22;101299.84;;;37.34;34.37
74230;BME280;62589;12.568;99.958;2023-03-05T06:58:50;101297.44;;;37.32;34.32
74230;BME280;62589;12.568;99.958;2023-03-05T07:01:18;101289.84;;;37.33;34.27
74230;BME280;62589;12.568;99.958;2023-03-05T07:03:48;101283.44;;;37.32;34.73
74230;BME280;62589;12.568;99.958;2023-03-05T07:06:15;101279.03;;;37.35;34.94
74230;BME280;62589;12.568;99.958;2023-03-05T07:08:42;101277.03;;;37.35;34.99
74230;BME280;62589;12.568;99.958;2023-03-05T07:11:17;101271.84;;;37.34;34.58
74230;BME280;62589;12.568;99.958;2023-03-05T07:13:44;101262.22;;;37.35;34.61
74230;BME280;62589;12.568;99.958;2023-03-05T07:16:15;101259.44;;;37.35;34.64
74230;BME280;62589;12.568;99.958;2023-03-05T07:18:43;101249.84;;;37.29;34.71
74230;BME280;62589;12.568;99.958;2023-03-05T07:21:13;101250.66;;;37.29;34.72
74230;BME280;62589;12.568;99.958;2023-03-05T07:23:40;101242.25;;;37.29;35.22
74230;BME280;62589;12.568;99.958;2023-03-05T07:26:07;101243.84;;;37.30;34.76
74230;BME280;62589;12.568;99.958;2023-03-05T07:28:34;101238.66;;;37.29;35.31
74230;BME280;62589;12.568;99.958;2023-03-05T07:31:04;101237.06;;;37.28;35.06
74230;BME280;62589;12.568;99.958;2023-03-05T07:33:31;101235.84;;;37.29;35.05
74230;BME280;62589;12.568;99.958;2023-03-05T07:36:00;101225.44;;;37.29;34.99
74230;BME280;62589;12.568;99.958;2023-03-05T07:38:26;101223.06;;;37.28;34.93
74230;BME280;62589;12.568;99.958;2023-03-05T07:40:53;101219.44;;;37.31;34.65
74230;BME280;62589;12.568;99.958;2023-03-05T07:43:19;101218.66;;;37.27;34.83
74230;BME280;62589;12.568;99.958;2023-03-05T07:45:46;101211.06;;;37.24;34.77
74230;BME280;62589;12.568;99.958;2023-03-05T07:48:14;101211.06;;;37.24;34.58
74230;BME280;62589;12.568;99.958;2023-03-05T07:50:42;101202.69;;;37.24;34.79
74230;BME280;62589;12.568;99.958;2023-03-05T07:53:09;101203.09;;;37.22;34.97
74230;BME280;62589;12.568;99.958;2023-03-05T07:55:42;101198.28;;;37.23;35.02
74230;BME280;62589;12.568;99.958;2023-03-05T07:58:09;101199.88;;;37.24;34.94
74230;BME280;62589;12.568;99.958;2023-03-05T08:00:36;101183.88;;;37.24;34.75
74230;BME280;62589;12.568;99.958;2023-03-05T08:03:03;101179.88;;;37.22;34.93
74230;BME280;62589;12.568;99.958;2023-03-05T08:05:29;101176.72;;;37.20;34.76
74230;BME280;62589;12.568;99.958;2023-03-05T08:07:56;101173.94;;;37.20;34.64
74230;BME280;62589;12.568;99.958;2023-03-05T08:10:22;101175.50;;;37.17;34.77
74230;BME280;62589;12.568;99.958;2023-03-05T08:12:49;101171.91;;;37.16;34.84
74230;BME280;62589;12.568;99.958;2023-03-05T08:15:15;101175.91;;;37.15;34.93
74230;BME280;62589;12.568;99.958;2023-03-05T08:17:42;101178.72;;;37.15;34.81
74230;BME280;62589;12.568;99.958;2023-03-05T08:20:09;101173.53;;;37.14;35.08
74230;BME280;62589;12.568;99.958;2023-03-05T08:22:36;101164.72;;;37.12;34.97
74230;BME280;62589;12.568;99.958;2023-03-05T08:25:04;101165.53;;;37.12;35.00
74230;BME280;62589;12.568;99.958;2023-03-05T08:27:31;101162.72;;;37.12;34.90
74230;BME280;62589;12.568;99.958;2023-03-05T08:29:59;101166.75;;;37.08;34.70
74230;BME280;62589;12.568;99.958;2023-03-05T08:32:26;101158.34;;;37.08;34.91
74230;BME280;62589;12.568;99.958;2023-03-05T08:34:55;101160.75;;;37.06;34.94
74230;BME280;62589;12.568;99.958;2023-03-05T08:37:24;101150.34;;;37.06;35.23
74230;BME280;62589;12.568;99.958;2023-03-05T08:39:50;101145.56;;;37.07;34.98
74230;BME280;62589;12.568;99.958;2023-03-05T08:42:17;101147.56;;;37.06;35.12
74230;BME280;62589;12.568;99.958;2023-03-05T08:44:43;101148.75;;;37.05;35.12
74230;BME280;62589;12.568;99.958;2023-03-05T08:47:10;101138.38;;;37.02;34.85
74230;BME280;62589;12.568;99.958;2023-03-05T08:49:36;101141.19;;;37.02;34.78
74230;BME280;62589;12.568;99.958;2023-03-05T08:52:03;101134.41;;;37.00;34.77
74230;BME280;62589;12.568;99.958;2023-03-05T08:54:30;101146.38;;;37.00;35.41
74230;BME280;62589;12.568;99.958;2023-03-05T08:56:56;101141.22;;;36.99;35.09
74230;BME280;62589;12.568;99.958;2023-03-05T08:59:22;101144.03;;;36.99;34.94
74230;BME280;62589;12.568;99.958;2023-03-05T09:01:49;101144.44;;;36.97;34.83
74230;BME280;62589;12.568;99.958;2023-03-05T09:04:16;101134.44;;;36.96;34.82
74230;BME280;62589;12.568;99.958;2023-03-05T09:06:42;101140.84;;;36.97;35.28
74230;BME280;62589;12.568;99.958;2023-03-05T09:09:09;101136.44;;;36.96;34.89
74230;BME280;62589;12.568;99.958;2023-03-05T09:11:36;101134.06;;;36.94;34.76
74230;BME280;62589;12.568;99.958;2023-03-05T09:14:03;101136.47;;;36.92;35.00
74230;BME280;62589;12.568;99.958;2023-03-05T09:16:30;101139.69;;;36.87;34.54
74230;BME280;62589;12.568;99.958;2023-03-05T09:18:58;101134.88;;;36.88;34.67
74230;BME280;62589;12.568;99.958;2023-03-05T09:21:25;101131.28;;;36.87;35.18
74230;BME280;62589;12.568;99.958;2023-03-05T09:23:51;101134.91;;;36.84;35.25
74230;BME280;62589;12.568;99.958;2023-03-05T09:26:18;101139.31;;;36.81;35.33
74230;BME280;62589;12.568;99.958;2023-03-05T09:28:47;101137.69;;;36.80;35.13
74230;BME280;62589;12.568;99.958;2023-03-05T09:31:14;101133.75;;;36.78;35.55
74230;BME280;62589;12.568;99.958;2023-03-05T09:33:41;101136.16;;;36.76;35.25
74230;BME280;62589;12.568;99.958;2023-03-05T09:36:28;101140.13;;;36.78;35.16
74230;BME280;62589;12.568;99.958;2023-03-05T09:38:55;101140.13;;;36.71;35.25
74230;BME280;62589;12.568;99.958;2023-03-05T09:47:55;101136.53;;;36.71;34.97
74230;BME280;62589;12.568;99.958;2023-03-05T09:50:34;101140.56;;;36.66;34.72
74230;BME280;62589;12.568;99.958;2023-03-05T09:53:22;101137.75;;;36.66;35.19
74230;BME280;62589;12.568;99.958;2023-03-05T09:56:03;101142.16;;;36.64;35.05
74230;BME280;62589;12.568;99.958;2023-03-05T09:58:38;101137.38;;;36.61;35.07
74230;BME280;62589;12.568;99.958;2023-03-05T10:01:10;101141.38;;;36.60;34.85
74230;BME280;62589;12.568;99.958;2023-03-05T10:03:58;101151.34;;;36.61;34.75
74230;BME280;62589;12.568;99.958;2023-03-05T10:06:34;101146.59;;;36.58;35.39
74230;BME280;62589;12.568;99.958;2023-03-05T10:09:11;101145.78;;;36.57;35.35
74230;BME280;62589;12.568;99.958;2023-03-05T10:12:02;101146.56;;;36.61;35.33
74230;BME280;62589;12.568;99.958;2023-03-05T10:14:33;101149.81;;;36.53;35.55
74230;BME280;62589;12.568;99.958;2023-03-05T10:17:23;101143.81;;;36.54;35.73
74230;BME280;62589;12.568;99.958;2023-03-05T10:26:16;101150.22;;;36.47;35.20
74230;BME280;62589;12.568;99.958;2023-03-05T10:29:16;101143.03;;;36.43;35.50
74230;BME280;62589;12.568;99.958;2023-03-05T10:37:53;101146.69;;;36.29;35.98
74230;BME280;62589;12.568;99.958;2023-03-05T10:46:21;101157.03;;;36.18;35.69
74230;BME280;62589;12.568;99.958;2023-03-05T10:48:56;101153.88;;;36.12;35.58
74230;BME280;62589;12.568;99.958;2023-03-05T10:51:35;101158.28;;;36.10;35.56
74230;BME280;62589;12.568;99.958;2023-03-05T10:54:14;101158.69;;;36.05;35.72
74230;BME280;62589;12.568;99.958;2023-03-05T10:56:44;101156.28;;;36.00;35.71
74230;BME280;62589;12.568;99.958;2023-03-05T10:59:10;101158.72;;;35.94;36.02
74230;BME280;62589;12.568;99.958;2023-03-05T11:01:37;101160.31;;;35.92;36.25
74230;BME280;62589;12.568;99.958;2023-03-05T11:06:46;101166.28;;;35.87;35.35
74230;BME280;62589;12.568;99.958;2023-03-05T11:09:22;101172.28;;;35.81;36.02
74230;BME280;62589;12.568;99.958;2023-03-05T11:12:10;101166.69;;;35.81;35.75
74230;BME280;62589;12.568;99.958;2023-03-05T11:14:40;101159.50;;;35.73;35.83
74230;BME280;62589;12.568;99.958;2023-03-05T11:20:31;101166.28;;;35.72;35.85
74230;BME280;62589;12.568;99.958;2023-03-05T11:26:02;101172.22;;;35.57;36.29
74230;BME280;62589;12.568;99.958;2023-03-05T11:28:38;101181.81;;;35.48;36.28
74230;BME280;62589;12.568;99.958;2023-03-05T11:31:21;101186.59;;;35.44;36.31
74230;BME280;62589;12.568;99.958;2023-03-05T11:33:59;101183.38;;;35.39;36.84
74230;BME280;62589;12.568;99.958;2023-03-05T11:36:35;101186.19;;;35.32;36.73
74230;BME280;62589;12.568;99.958;2023-03-05T11:39:14;101188.16;;;35.28;36.52
74230;BME280;62589;12.568;99.958;2023-03-05T11:41:50;101196.50;;;35.24;36.72
74230;BME280;62589;12.568;99.958;2023-03-05T11:44:22;101199.28;;;35.21;37.00
74230;BME280;62589;12.568;99.958;2023-03-05T11:46:53;101206.84;;;35.17;37.03
74230;BME280;62589;12.568;99.958;2023-03-05T11:49:24;101197.69;;;35.12;37.25
74230;BME280;62589;12.568;99.958;2023-03-05T11:52:23;101196.06;;;35.11;37.38
74230;BME280;62589;12.568;99.958;2023-03-05T12:00:42;101207.94;;;34.94;37.98
74230;BME280;62589;12.568;99.958;2023-03-05T12:03:13;101207.53;;;34.92;38.22
74230;BME280;62589;12.568;99.958;2023-03-05T12:05:44;101211.91;;;34.86;37.82
74230;BME280;62589;12.568;99.958;2023-03-05T12:08:15;101208.34;;;34.86;38.17
74230;BME280;62589;12.568;99.958;2023-03-05T12:10:45;101207.50;;;34.82;38.36
74230;BME280;62589;12.568;99.958;2023-03-05T12:13:35;101214.22;;;34.77;38.40
74230;BME280;62589;12.568;99.958;2023-03-05T12:16:24;101217.00;;;34.70;38.80
74230;BME280;62589;12.568;99.958;2023-03-05T12:19:23;101227.34;;;34.69;38.63
74230;BME280;62589;12.568;99.958;2023-03-05T12:21:53;101229.28;;;34.62;39.04
74230;BME280;62589;12.568;99.958;2023-03-05T12:24:38;101230.09;;;34.62;38.87
74230;BME280;62589;12.568;99.958;2023-03-05T12:27:08;101231.63;;;34.53;38.96
74230;BME280;62589;12.568;99.958;2023-03-05T12:29:52;101236.78;;;34.51;39.10
74230;BME280;62589;12.568;99.958;2023-03-05T12:35:26;101246.72;;;34.44;39.62
74230;BME280;62589;12.568;99.958;2023-03-05T12:38:00;101255.44;;;34.39;39.76
74230;BME280;62589;12.568;99.958;2023-03-05T12:40:34;101253.03;;;34.38;39.94
74230;BME280;62589;12.568;99.958;2023-03-05T12:43:05;101264.53;;;34.33;39.54
74230;BME280;62589;12.568;99.958;2023-03-05T12:45:50;101264.94;;;34.31;39.68
74230;BME280;62589;12.568;99.958;2023-03-05T12:48:39;101267.34;;;34.29;40.06
74230;BME280;62589;12.568;99.958;2023-03-05T12:51:11;101275.59;;;34.22;39.68
74230;BME280;62589;12.568;99.958;2023-03-05T12:53:38;101284.75;;;34.23;39.99
74230;BME280;62589;12.568;99.958;2023-03-05T12:56:18;101282.38;;;34.25;39.90
74230;BME280;62589;12.568;99.958;2023-03-05T12:58:50;101290.31;;;34.19;40.39
74230;BME280;62589;12.568;99.958;2023-03-05T13:01:41;101287.94;;;34.21;40.50
74230;BME280;62589;12.568;99.958;2023-03-05T13:04:18;101290.25;;;34.16;40.31
74230;BME280;62589;12.568;99.958;2023-03-05T13:07:03;101298.63;;;34.16;40.57
74230;BME280;62589;12.568;99.958;2023-03-05T13:09:32;101300.63;;;34.15;40.82
74230;BME280;62589;12.568;99.958;2023-03-05T13:12:03;101309.72;;;34.12;40.96
74230;BME280;62589;12.568;99.958;2023-03-05T13:14:40;101308.16;;;34.14;40.54
74230;BME280;62589;12.568;99.958;2023-03-05T13:19:57;101324.84;;;34.11;40.80
74230;BME280;62589;12.568;99.958;2023-03-05T13:22:25;101330.81;;;34.09;41.19
74230;BME280;62589;12.568;99.958;2023-03-05T13:25:05;101338.78;;;34.11;41.53
74230;BME280;62589;12.568;99.958;2023-03-05T13:27:37;101339.59;;;34.08;41.13
74230;BME280;62589;12.568;99.958;2023-03-05T13:30:04;101349.94;;;34.07;41.34
74230;BME280;62589;12.568;99.958;2023-03-05T13:32:32;101355.88;;;34.06;41.36
74230;BME280;62589;12.568;99.958;2023-03-05T13:34:59;101354.69;;;34.07;41.82
74230;BME280;62589;12.568;99.958;2023-03-05T13:37:30;101363.44;;;34.05;41.75
74230;BME280;62589;12.568;99.958;2023-03-05T13:40:01;101364.25;;;34.06;41.83
74230;BME280;62589;12.568;99.958;2023-03-05T13:42:33;101369.81;;;34.06;41.89
74230;BME280;62589;12.568;99.958;2023-03-05T13:45:05;101372.59;;;34.06;41.63
74230;BME280;62589;12.568;99.958;2023-03-05T13:47:34;101373.78;;;34.05;41.74